Time;durP1;ratioP1;P1;durP2;ratioP2;P2;SDS_P1;SDS_P2;PMS_P1;PMS_P2;Temp;Humidity;BMP_temperature;BMP_pressure;BME280_temperature;BME280_humidity;BME280_pressure;Samples;Min_cycle;Max_cycle;Signal;HPM_P1;HPM_P2
2022/06/16 00:00:36;;;;;;;1.65;1.30;;;18.70;96.80;;;;;;5133775;28;20080;-59
2022/06/16 00:03:04;;;;;;;2.28;1.38;;;18.60;97.60;;;;;;5134004;28;20019;-58
2022/06/16 00:05:36;;;;;;;2.72;1.30;;;18.60;97.90;;;;;;5133880;28;20068;-53
2022/06/16 00:08:06;;;;;;;1.40;1.10;;;18.60;98.40;;;;;;5134225;28;20027;-59
2022/06/16 00:10:34;;;;;;;1.38;1.20;;;18.60;98.30;;;;;;5134189;28;20047;-57
2022/06/16 00:12:59;;;;;;;1.92;1.02;;;18.60;98.50;;;;;;5133927;27;20110;-56
2022/06/16 00:15:28;;;;;;;1.58;0.98;;;18.60;98.90;;;;;;5137149;27;20102;-57
2022/06/16 00:17:54;;;;;;;1.13;0.98;;;18.50;98.70;;;;;;5137912;27;20031;-59
2022/06/16 00:20:20;;;;;;;1.08;0.90;;;18.50;98.60;;;;;;5137707;27;20069;-58
2022/06/16 00:22:46;;;;;;;1.05;0.93;;;18.50;98.70;;;;;;5137851;27;20019;-57
2022/06/16 00:25:13;;;;;;;0.93;0.85;;;18.50;98.60;;;;;;5137892;27;20436;-55
2022/06/16 00:27:39;;;;;;;1.10;0.90;;;18.50;98.40;;;;;;5137725;27;20072;-59
2022/06/16 00:30:07;;;;;;;1.23;1.13;;;18.50;98.50;;;;;;5137766;27;20048;-58
2022/06/16 00:32:33;;;;;;;1.13;1.00;;;18.40;98.40;;;;;;5137856;27;20023;-59
2022/06/16 00:34:58;;;;;;;1.23;0.90;;;18.40;98.50;;;;;;5137839;27;20034;-59
2022/06/16 00:37:25;;;;;;;1.35;1.13;;;18.40;98.40;;;;;;5137728;27;20023;-58
2022/06/16 00:39:50;;;;;;;2.22;1.00;;;18.30;98.60;;;;;;5137791;27;20030;-57
2022/06/16 00:42:20;;;;;;;1.20;0.90;;;18.20;99.10;;;;;;5137405;27;20019;-58
2022/06/16 00:44:51;;;;;;;1.75;1.08;;;18.20;99.20;;;;;;5137354;27;20034;-58
2022/06/16 00:47:23;;;;;;;1.10;0.93;;;18.10;99.30;;;;;;5137575;27;20125;-56
2022/06/16 00:49:52;;;;;;;1.63;1.45;;;18.10;99.50;;;;;;5137502;27;20027;-59
2022/06/16 00:52:21;;;;;;;1.70;1.10;;;18.00;99.90;;;;;;5137300;27;20034;-58
2022/06/16 00:55:05;;;;;;;1.15;0.90;;;17.90;99.90;;;;;;5137149;27;20027;-56
2022/06/16 00:57:35;;;;;;;1.90;1.30;;;17.90;99.90;;;;;;5136751;27;20042;-57
2022/06/16 01:00:16;;;;;;;2.33;1.40;;;17.90;99.90;;;;;;5137084;27;20023;-54
2022/06/16 01:02:42;;;;;;;1.13;1.00;;;17.90;99.90;;;;;;5137021;27;20103;-57
2022/06/16 01:05:08;;;;;;;1.67;1.48;;;17.80;99.90;;;;;;5137271;27;20477;-59
2022/06/16 01:07:38;;;;;;;1.48;1.00;;;17.80;99.90;;;;;;5136937;27;20069;-57
2022/06/16 01:10:05;;;;;;;1.73;1.20;;;17.70;99.90;;;;;;5137128;27;20383;-59
2022/06/16 01:16:25;;;;;;;1.92;1.38;;;17.70;99.90;;;;;;5136778;27;20039;-57
2022/06/16 01:19:03;;;;;;;1.58;1.38;;;17.60;99.90;;;;;;5136902;27;20023;-58
2022/06/16 01:21:44;;;;;;;1.20;1.10;;;17.60;99.90;;;;;;5136644;27;20015;-57
2022/06/16 01:24:15;;;;;;;1.38;1.10;;;17.60;99.90;;;;;;5136802;27;20019;-58
2022/06/16 01:26:59;;;;;;;2.85;1.40;;;17.60;99.90;;;;;;5134905;27;20019;-58
2022/06/16 01:29:51;;;;;;;3.10;1.52;;;17.50;99.90;;;;;;5136710;27;20026;-57
2022/06/16 01:32:47;;;;;;;2.38;1.30;;;17.40;99.90;;;;;;5136899;27;20351;-58
2022/06/16 01:35:34;;;;;;;1.20;1.10;;;17.30;99.90;;;;;;5136273;27;20031;-56
2022/06/16 01:38:21;;;;;;;1.50;1.15;;;17.30;99.90;;;;;;5136407;27;20027;-58
2022/06/16 01:41:09;;;;;;;1.25;0.95;;;17.30;99.90;;;;;;5136116;27;20094;-58
2022/06/16 01:44:08;;;;;;;1.85;1.02;;;17.40;99.90;;;;;;5136189;27;20033;-57
2022/06/16 01:46:37;;;;;;;1.20;1.08;;;17.40;99.90;;;;;;5136508;27;20377;-58
2022/06/16 01:49:17;;;;;;;1.10;0.93;;;17.40;99.90;;;;;;5136110;27;20503;-58
2022/06/16 01:51:58;;;;;;;1.40;1.00;;;17.40;99.90;;;;;;5136422;27;20023;-56
2022/06/16 01:54:29;;;;;;;1.45;1.00;;;17.30;99.90;;;;;;5135959;27;20031;-59
2022/06/16 01:57:07;;;;;;;0.95;0.85;;;17.30;99.90;;;;;;5135692;27;20050;-59
2022/06/16 02:00:00;;;;;;;1.27;1.17;;;17.30;99.90;;;;;;5136251;27;20023;-58
2022/06/16 02:02:30;;;;;;;1.00;0.82;;;17.30;99.90;;;;;;5135859;27;20015;-58
2022/06/16 02:05:05;;;;;;;0.90;0.90;;;17.30;99.90;;;;;;5136143;27;20030;-59
2022/06/16 02:07:55;;;;;;;2.00;1.15;;;17.30;99.90;;;;;;5135872;27;20080;-60
2022/06/16 02:10:25;;;;;;;1.50;1.20;;;17.20;99.90;;;;;;5135369;27;20027;-59
2022/06/16 02:12:57;;;;;;;1.85;1.00;;;17.20;99.90;;;;;;5135624;27;20038;-55
2022/06/16 02:15:36;;;;;;;1.25;1.08;;;17.10;99.90;;;;;;5135696;27;20039;-56
2022/06/16 02:18:06;;;;;;;1.40;1.20;;;17.10;99.90;;;;;;5135642;27;20015;-57
2022/06/16 02:20:52;;;;;;;1.60;1.10;;;17.10;99.90;;;;;;5135449;27;20022;-58
2022/06/16 02:23:18;;;;;;;1.73;1.20;;;17.10;99.90;;;;;;5135616;27;20362;-59
2022/06/16 02:25:47;;;;;;;1.40;1.00;;;17.00;99.90;;;;;;5135435;27;20030;-57
2022/06/16 02:28:13;;;;;;;1.60;1.20;;;17.00;99.90;;;;;;5135398;27;20023;-59
2022/06/16 02:31:03;;;;;;;1.67;1.00;;;17.00;99.90;;;;;;5135870;27;20077;-56
2022/06/16 02:33:54;;;;;;;1.83;0.90;;;16.90;99.90;;;;;;5135206;27;20019;-55
2022/06/16 02:36:56;;;;;;;1.15;1.05;;;16.90;99.90;;;;;;5134886;27;20031;-53
2022/06/16 02:39:53;;;;;;;1.30;1.02;;;16.90;99.90;;;;;;5116817;27;20106;-57
2022/06/16 02:42:34;;;;;;;1.00;0.75;;;16.90;99.90;;;;;;5116723;27;20385;-59
2022/06/16 02:45:09;;;;;;;1.20;1.10;;;16.90;99.90;;;;;;5135287;27;20023;-57
2022/06/16 02:47:58;;;;;;;0.93;0.90;;;16.80;99.90;;;;;;5134998;27;20019;-57
2022/06/16 02:50:43;;;;;;;2.25;1.15;;;16.80;99.90;;;;;;5135064;27;20469;-57
2022/06/16 02:56:31;;;;;;;2.00;1.00;;;16.70;99.90;;;;;;5135054;27;20027;-56
2022/06/16 02:59:03;;;;;;;2.22;1.20;;;16.70;99.90;;;;;;5134615;27;20039;-58
2022/06/16 03:01:31;;;;;;;2.10;1.30;;;16.60;99.90;;;;;;5134688;27;20019;-55
2022/06/16 03:04:07;;;;;;;2.08;1.45;;;16.60;99.90;;;;;;5135024;27;20027;-57
2022/06/16 03:06:33;;;;;;;1.92;1.40;;;16.50;99.90;;;;;;5134742;27;20027;-59
2022/06/16 03:08:59;;;;;;;1.45;1.30;;;16.40;99.90;;;;;;5134449;27;20074;-55
2022/06/16 03:11:25;;;;;;;1.77;1.65;;;16.40;99.90;;;;;;5134901;27;20031;-58
2022/06/16 03:13:51;;;;;;;1.95;1.13;;;16.50;99.90;;;;;;5134494;27;20525;-58
2022/06/16 03:16:16;;;;;;;1.88;1.40;;;16.40;99.90;;;;;;5134344;27;20027;-56
2022/06/16 03:18:42;;;;;;;1.95;1.40;;;16.40;99.90;;;;;;5134635;27;20027;-57
2022/06/16 03:21:08;;;;;;;1.98;1.30;;;16.30;99.90;;;;;;5134408;27;20023;-53
2022/06/16 03:23:35;;;;;;;2.67;1.40;;;16.40;99.90;;;;;;5134166;27;20023;-57
2022/06/16 03:26:01;;;;;;;1.77;1.67;;;16.40;99.90;;;;;;5134689;27;20024;-56
2022/06/16 03:28:27;;;;;;;2.53;1.63;;;16.40;99.90;;;;;;5134464;27;20023;-57
2022/06/16 03:30:53;;;;;;;1.88;1.52;;;16.30;99.90;;;;;;5134538;27;20381;-59
2022/06/16 03:33:19;;;;;;;1.30;1.20;;;16.30;99.90;;;;;;5134371;27;20027;-59
2022/06/16 03:35:45;;;;;;;1.17;1.08;;;16.30;99.90;;;;;;5134490;27;20024;-55
2022/06/16 03:40:54;;;;;;;1.77;1.50;;;16.40;99.90;;;;;;5134310;28;20380;-57
2022/06/16 03:43:19;;;;;;;0.98;0.88;;;16.50;99.90;;;;;;5134482;28;20169;-57
2022/06/16 03:45:45;;;;;;;1.20;0.90;;;16.50;99.90;;;;;;5134166;28;20469;-56
2022/06/16 03:48:12;;;;;;;1.08;0.98;;;16.50;99.90;;;;;;5134368;27;20465;-59
2022/06/16 03:50:38;;;;;;;1.50;1.17;;;16.50;99.90;;;;;;5138485;27;20031;-59
2022/06/16 03:53:04;;;;;;;1.20;0.95;;;16.50;99.90;;;;;;5138109;27;20438;-54
2022/06/16 03:55:30;;;;;;;3.00;1.38;;;16.50;99.90;;;;;;5138173;27;20027;-56
2022/06/16 03:57:55;;;;;;;1.50;1.33;;;16.50;99.90;;;;;;5138218;27;20043;-56
2022/06/16 04:00:22;;;;;;;1.85;1.05;;;16.50;99.90;;;;;;5138438;27;20493;-58
2022/06/16 04:03:59;;;;;;;3.13;1.25;;;16.50;99.90;;;;;;5138250;27;20019;-60
2022/06/16 04:05:35;;;;;;;1.38;1.25;;;16.50;99.90;;;;;;5137930;27;20023;-59
2022/06/16 04:08:01;;;;;;;1.40;1.30;;;16.50;99.90;;;;;;5138428;27;20027;-57
2022/06/16 04:10:27;;;;;;;1.50;1.40;;;16.50;99.90;;;;;;5138258;27;20027;-54
2022/06/16 04:12:52;;;;;;;1.58;1.48;;;16.50;99.90;;;;;;5138007;27;20030;-57
2022/06/16 04:15:18;;;;;;;2.45;1.58;;;16.50;99.90;;;;;;5137878;27;20023;-60
2022/06/16 04:17:44;;;;;;;3.42;2.08;;;16.60;99.90;;;;;;5138042;27;20034;-57
2022/06/16 04:20:13;;;;;;;2.30;1.90;;;16.60;99.90;;;;;;5137627;27;20027;-59
2022/06/16 04:22:39;;;;;;;2.13;1.70;;;16.50;99.90;;;;;;5137743;27;20027;-57
2022/06/16 04:25:07;;;;;;;4.88;2.25;;;16.50;99.90;;;;;;5137952;27;20062;-58
2022/06/16 04:27:33;;;;;;;3.05;1.90;;;16.50;99.90;;;;;;5137707;27;20542;-57
2022/06/16 04:29:59;;;;;;;2.38;2.08;;;16.40;99.90;;;;;;5137923;27;20031;-60
2022/06/16 04:32:24;;;;;;;1.70;1.60;;;16.40;99.90;;;;;;5137809;27;20388;-58
2022/06/16 04:34:50;;;;;;;2.63;1.70;;;16.50;99.90;;;;;;5137516;27;20031;-59
2022/06/16 04:37:16;;;;;;;3.92;2.50;;;16.60;99.90;;;;;;5137593;27;20024;-58
2022/06/16 04:39:41;;;;;;;2.38;2.08;;;16.60;99.90;;;;;;5137814;27;20023;-56
2022/06/16 04:42:07;;;;;;;3.53;1.98;;;16.70;99.90;;;;;;5137465;27;20019;-55
2022/06/16 04:44:34;;;;;;;2.47;2.15;;;16.70;99.90;;;;;;5137372;27;20035;-57
2022/06/16 04:47:02;;;;;;;3.20;2.10;;;16.70;99.90;;;;;;5137608;27;20430;-59
2022/06/16 04:49:28;;;;;;;2.97;2.30;;;16.70;99.90;;;;;;5137147;27;20508;-57
2022/06/16 04:51:54;;;;;;;3.10;2.60;;;16.60;99.90;;;;;;5137280;27;20069;-57
2022/06/16 04:54:20;;;;;;;1.92;1.58;;;16.60;99.90;;;;;;5137133;27;20055;-59
2022/06/16 04:56:45;;;;;;;7.78;2.55;;;16.70;99.90;;;;;;5136965;27;20015;-60
2022/06/16 04:59:13;;;;;;;3.75;2.58;;;16.70;99.90;;;;;;5137061;27;20023;-57
2022/06/16 05:01:39;;;;;;;7.97;2.92;;;16.80;99.90;;;;;;5119065;27;20020;-54
2022/06/16 05:04:05;;;;;;;4.30;2.30;;;16.80;99.90;;;;;;5136838;27;20022;-54
2022/06/16 05:06:31;;;;;;;4.70;2.35;;;16.80;99.90;;;;;;5136940;27;20071;-58
2022/06/16 05:08:57;;;;;;;4.90;2.28;;;16.90;99.90;;;;;;5136896;27;20034;-58
2022/06/16 05:11:23;;;;;;;2.28;2.08;;;17.00;99.90;;;;;;5137370;27;20069;-57
2022/06/16 05:13:48;;;;;;;1.70;1.60;;;17.10;99.90;;;;;;5137174;27;20518;-56
2022/06/16 05:16:14;;;;;;;3.38;2.22;;;17.20;99.90;;;;;;5136642;27;20527;-57
2022/06/16 05:18:39;;;;;;;3.13;2.55;;;17.30;99.90;;;;;;5136683;27;20370;-58
2022/06/16 05:21:07;;;;;;;3.72;2.33;;;17.40;99.90;;;;;;5136809;27;20020;-59
2022/06/16 05:23:33;;;;;;;3.28;2.22;;;17.40;99.90;;;;;;5136614;27;20047;-57
2022/06/16 05:25:59;;;;;;;5.72;2.35;;;17.50;99.90;;;;;;5136666;27;20102;-58
2022/06/16 05:28:25;;;;;;;2.85;2.15;;;17.60;99.90;;;;;;5136070;27;20443;-62
2022/06/16 05:30:50;;;;;;;1.92;1.73;;;17.60;99.90;;;;;;5136211;27;20030;-60
2022/06/16 05:33:16;;;;;;;3.15;1.80;;;17.80;99.90;;;;;;5135171;27;20048;-61
2022/06/16 05:35:42;;;;;;;2.22;1.58;;;17.90;99.90;;;;;;5136289;27;20027;-59
2022/06/16 05:38:07;;;;;;;1.88;1.77;;;18.10;99.90;;;;;;5128578;27;20077;-61
2022/06/16 05:40:33;;;;;;;2.85;1.60;;;18.30;99.90;;;;;;5120790;27;20032;-52
2022/06/16 05:42:59;;;;;;;4.72;1.60;;;18.40;99.90;;;;;;5121401;27;20389;-58
2022/06/16 05:45:25;;;;;;;1.90;1.75;;;18.50;99.90;;;;;;5125001;27;20106;-57
2022/06/16 05:47:50;;;;;;;2.92;2.55;;;18.60;99.90;;;;;;5122093;27;20027;-59
2022/06/16 05:50:17;;;;;;;22.35;6.60;;;18.80;99.90;;;;;;5125362;27;20027;-58
2022/06/16 05:52:44;;;;;;;18.98;6.85;;;18.90;99.90;;;;;;5125948;27;20106;-57
2022/06/16 05:55:14;;;;;;;12.75;5.05;;;19.00;99.90;;;;;;5116588;27;20123;-60
2022/06/16 05:57:40;;;;;;;9.70;4.50;;;19.10;99.90;;;;;;5119040;27;20088;-63
2022/06/16 06:00:07;;;;;;;5.97;3.67;;;19.20;99.90;;;;;;5121818;27;20027;-58
2022/06/16 06:02:33;;;;;;;5.80;2.92;;;19.30;99.90;;;;;;5099462;27;20028;-56
2022/06/16 06:04:59;;;;;;;6.43;3.40;;;19.40;99.90;;;;;;5128611;27;20023;-61
2022/06/16 06:07:24;;;;;;;4.22;2.85;;;19.50;99.90;;;;;;5134624;27;20509;-61
2022/06/16 06:18:19;;;;;;;2.90;2.47;;;19.80;99.90;;;;;;5128966;27;20031;-58
2022/06/16 06:20:46;;;;;;;3.47;2.28;;;20.00;99.90;;;;;;5121244;27;20031;-58
2022/06/16 06:23:12;;;;;;;4.28;2.85;;;20.20;99.90;;;;;;5132736;27;20488;-60
2022/06/16 06:25:37;;;;;;;2.45;2.25;;;20.30;99.90;;;;;;5127466;27;20032;-55
2022/06/16 06:28:03;;;;;;;4.13;2.10;;;20.40;99.90;;;;;;5117319;27;20474;-54
2022/06/16 06:30:30;;;;;;;3.83;2.30;;;20.50;99.90;;;;;;5132493;27;20023;-61
2022/06/16 06:32:58;;;;;;;2.85;2.00;;;20.70;99.90;;;;;;5131452;27;20030;-56
2022/06/16 06:35:24;;;;;;;2.00;1.80;;;20.80;99.90;;;;;;5131805;27;20019;-57
2022/06/16 06:37:51;;;;;;;2.15;1.85;;;21.00;99.90;;;;;;5131717;27;20035;-58
2022/06/16 06:40:18;;;;;;;5.20;1.70;;;21.10;99.60;;;;;;5131620;27;20026;-60
2022/06/16 06:42:44;;;;;;;2.75;1.67;;;21.20;99.60;;;;;;5133712;27;20049;-56
2022/06/16 06:45:10;;;;;;;1.88;1.50;;;21.40;99.40;;;;;;5132745;27;20051;-56
2022/06/16 06:47:36;;;;;;;1.55;1.45;;;21.50;98.90;;;;;;5126973;27;20181;-57
2022/06/16 06:50:02;;;;;;;3.97;1.85;;;21.70;99.30;;;;;;5131607;27;20026;-59
2022/06/16 06:52:28;;;;;;;2.22;1.80;;;21.80;99.70;;;;;;5132734;27;20027;-55
2022/06/16 06:54:54;;;;;;;1.95;1.60;;;21.90;99.00;;;;;;5131039;27;20030;-56
2022/06/16 06:57:24;;;;;;;1.83;1.73;;;22.00;99.30;;;;;;5131058;27;20048;-58
2022/06/16 06:59:50;;;;;;;1.88;1.52;;;22.20;98.00;;;;;;5131643;27;20019;-56
2022/06/16 07:02:17;;;;;;;2.63;1.38;;;22.30;99.50;;;;;;5131807;27;20079;-62
2022/06/16 07:04:43;;;;;;;1.60;1.50;;;22.50;97.70;;;;;;5133439;27;20023;-61
2022/06/16 07:07:12;;;;;;;1.90;1.55;;;22.60;97.20;;;;;;5133487;27;20030;-59
2022/06/16 07:09:38;;;;;;;1.88;1.77;;;22.70;98.30;;;;;;5132463;27;20019;-61
2022/06/16 07:12:13;;;;;;;2.33;1.75;;;22.80;96.90;;;;;;5133272;27;20019;-59
2022/06/16 07:14:46;;;;;;;2.15;1.80;;;22.90;96.50;;;;;;5131504;27;20027;-62
2022/06/16 07:17:12;;;;;;;2.90;2.10;;;23.00;96.40;;;;;;5131322;27;20077;-55
2022/06/16 07:19:38;;;;;;;2.45;2.20;;;23.10;97.50;;;;;;5131733;27;20030;-59
2022/06/16 07:22:05;;;;;;;2.60;2.10;;;23.20;96.80;;;;;;5131359;27;20015;-55
2022/06/16 07:24:31;;;;;;;6.40;2.72;;;23.30;95.60;;;;;;5133324;27;20015;-60
2022/06/16 07:26:57;;;;;;;3.20;2.45;;;23.40;98.00;;;;;;5133322;27;20023;-59
2022/06/16 07:29:23;;;;;;;5.57;2.80;;;23.50;96.90;;;;;;5132062;27;20023;-56
2022/06/16 07:31:49;;;;;;;5.75;2.50;;;23.60;96.90;;;;;;5132110;27;20034;-59
2022/06/16 07:34:15;;;;;;;5.22;2.65;;;23.80;97.10;;;;;;5132351;27;20075;-57
2022/06/16 07:36:41;;;;;;;5.45;2.92;;;23.90;97.10;;;;;;5131987;27;20112;-56
2022/06/16 07:39:07;;;;;;;3.55;2.72;;;24.00;96.30;;;;;;5136074;27;20028;-59
2022/06/16 07:41:36;;;;;;;5.00;2.72;;;24.20;96.50;;;;;;5136577;27;20023;-61
2022/06/16 07:44:07;;;;;;;6.05;2.90;;;24.40;96.30;;;;;;5115653;28;20040;-57
2022/06/16 07:46:35;;;;;;;2.72;2.47;;;24.60;94.90;;;;;;5119492;28;20058;-61
2022/06/16 07:49:01;;;;;;;3.42;2.65;;;25.90;94.30;;;;;;5128746;27;20019;-57
2022/06/16 07:51:27;;;;;;;3.03;2.60;;;28.40;91.40;;;;;;5130968;28;20031;-61
2022/06/16 07:53:52;;;;;;;3.75;2.35;;;30.50;83.80;;;;;;5112880;28;20034;-59
2022/06/16 07:56:21;;;;;;;3.50;2.30;;;32.30;74.90;;;;;;5124405;28;20019;-59
2022/06/16 07:58:47;;;;;;;3.47;2.63;;;33.30;71.40;;;;;;5118098;28;20526;-60
2022/06/16 08:01:13;;;;;;;4.78;2.22;;;33.70;68.00;;;;;;5118733;28;20031;-59
2022/06/16 08:03:39;;;;;;;3.38;2.33;;;34.40;66.10;;;;;;5147791;27;20029;-61
2022/06/16 08:06:09;;;;;;;2.28;2.05;;;35.20;64.00;;;;;;5109595;28;20027;-56
2022/06/16 08:08:35;;;;;;;2.08;1.88;;;35.80;55.20;;;;;;5116096;28;20381;-55
2022/06/16 08:11:00;;;;;;;2.35;1.63;;;36.30;53.10;;;;;;5110317;28;20496;-61
2022/06/16 08:13:27;;;;;;;2.63;2.03;;;36.70;51.00;;;;;;5108107;28;20119;-61
2022/06/16 08:15:54;;;;;;;4.70;2.20;;;36.70;50.90;;;;;;5108056;28;20046;-57
2022/06/16 08:18:22;;;;;;;3.10;1.85;;;36.80;49.50;;;;;;5109039;28;20456;-60
2022/06/16 08:20:48;;;;;;;2.33;1.75;;;37.10;50.20;;;;;;5109015;28;20016;-57
2022/06/16 08:23:15;;;;;;;2.85;1.58;;;37.30;48.20;;;;;;5110236;28;20031;-56
2022/06/16 08:25:42;;;;;;;3.33;1.90;;;37.00;52.10;;;;;;5092407;28;20022;-56
2022/06/16 08:28:09;;;;;;;2.45;1.90;;;37.40;48.30;;;;;;5111156;28;20027;-60
2022/06/16 08:30:41;;;;;;;2.15;1.90;;;38.00;46.90;;;;;;5112460;28;20045;-57
2022/06/16 08:33:14;;;;;;;2.67;2.20;;;38.20;46.50;;;;;;5110302;28;20081;-58
2022/06/16 08:35:42;;;;;;;3.00;1.63;;;38.50;45.80;;;;;;5112995;28;20271;-59
2022/06/16 08:38:08;;;;;;;3.13;1.70;;;38.80;45.20;;;;;;5113774;28;20019;-61
2022/06/16 08:40:40;;;;;;;4.75;1.77;;;38.90;47.40;;;;;;5113688;28;20023;-55
2022/06/16 08:43:15;;;;;;;2.20;1.75;;;38.90;43.80;;;;;;5123797;27;20023;-57
2022/06/16 08:45:48;;;;;;;2.13;1.48;;;38.90;43.60;;;;;;5119981;27;20027;-59
2022/06/16 08:48:26;;;;;;;1.90;1.80;;;39.00;46.40;;;;;;5120295;27;20363;-59
2022/06/16 08:51:00;;;;;;;2.05;1.85;;;38.90;44.70;;;;;;5123807;27;20647;-59
2022/06/16 08:53:45;;;;;;;3.45;2.65;;;39.00;45.30;;;;;;5122347;27;20035;-58
2022/06/16 08:56:33;;;;;;;2.45;2.03;;;38.80;43.40;;;;;;5120344;27;20028;-57
2022/06/16 08:59:29;;;;;;;2.55;2.25;;;38.80;45.10;;;;;;5126898;27;20042;-55
2022/06/16 09:02:15;;;;;;;2.33;2.10;;;38.40;41.70;;;;;;5116064;28;20020;-64
2022/06/16 09:04:48;;;;;;;2.40;2.20;;;38.70;43.40;;;;;;5115849;28;20020;-57
2022/06/16 09:07:34;;;;;;;2.25;2.05;;;38.80;42.00;;;;;;5098038;28;20084;-56
2022/06/16 09:10:23;;;;;;;2.47;2.13;;;38.90;43.60;;;;;;5116350;28;20396;-56
2022/06/16 09:13:04;;;;;;;2.63;2.40;;;39.10;42.20;;;;;;5118874;27;20131;-60
2022/06/16 09:15:52;;;;;;;2.30;2.10;;;38.70;40.80;;;;;;5130754;27;20106;-57
2022/06/16 09:18:30;;;;;;;2.72;2.10;;;38.50;43.20;;;;;;5142730;27;20023;-55
2022/06/16 09:21:26;;;;;;;2.05;1.95;;;38.50;43.30;;;;;;5135258;27;20086;-57
2022/06/16 09:24:20;;;;;;;2.40;2.20;;;38.70;42.10;;;;;;5128152;27;20016;-61
2022/06/16 09:27:12;;;;;;;2.90;1.90;;;39.00;41.50;;;;;;5126920;27;20050;-58
2022/06/16 09:29:53;;;;;;;1.90;1.80;;;39.10;45.30;;;;;;5116325;27;20019;-59
2022/06/16 09:32:18;;;;;;;2.35;1.55;;;39.20;41.80;;;;;;5127918;27;20380;-58
2022/06/16 09:35:00;;;;;;;2.30;2.10;;;38.90;40.60;;;;;;5117548;27;20038;-58
2022/06/16 09:38:02;;;;;;;1.77;1.60;;;38.90;40.80;;;;;;5123978;27;20488;-58
2022/06/16 09:40:48;;;;;;;1.45;1.35;;;38.80;41.00;;;;;;5129239;27;20023;-56
2022/06/16 09:43:51;;;;;;;3.35;2.00;;;38.80;42.30;;;;;;5109779;27;20510;-60
2022/06/16 09:46:23;;;;;;;;;;;38.10;39.20;;;;;;5136443;27;20096;-58
2022/06/16 09:49:10;;;;;;;1.45;1.35;;;38.20;40.90;;;;;;5128628;27;19907;-59
2022/06/16 09:51:50;;;;;;;1.63;1.52;;;37.90;41.30;;;;;;5135301;27;20116;-58
2022/06/16 09:54:29;;;;;;;1.60;1.30;;;37.70;39.20;;;;;;5114390;28;20462;-60
2022/06/16 09:57:23;;;;;;;1.40;1.30;;;37.80;43.00;;;;;;5116223;27;20035;-59
2022/06/16 10:00:07;;;;;;;1.35;1.25;;;37.90;42.00;;;;;;5116199;27;20047;-57
2022/06/16 10:02:54;;;;;;;2.20;1.60;;;37.90;39.40;;;;;;5118125;27;20023;-57
2022/06/16 10:05:35;;;;;;;1.63;1.52;;;37.80;41.40;;;;;;5135415;27;20027;-58
2022/06/16 10:08:21;;;;;;;1.63;1.13;;;37.90;38.40;;;;;;5128960;27;20378;-59
2022/06/16 10:10:57;;;;;;;1.90;1.30;;;38.10;38.40;;;;;;5133961;27;20082;-58
2022/06/16 10:13:47;;;;;;;1.48;1.20;;;38.10;36.50;;;;;;5132442;27;20026;-58
2022/06/16 10:16:19;;;;;;;1.42;1.33;;;38.00;42.30;;;;;;5133523;27;20049;-59
2022/06/16 10:18:46;;;;;;;1.67;1.13;;;38.20;39.60;;;;;;5134660;27;20034;-59
2022/06/16 10:21:13;;;;;;;1.13;1.10;;;38.40;39.60;;;;;;5133329;27;20286;-58
2022/06/16 10:23:49;;;;;;;1.30;1.20;;;38.40;38.30;;;;;;5134872;27;20023;-59
2022/06/16 10:26:14;;;;;;;1.38;1.10;;;38.40;37.10;;;;;;5133670;27;20037;-57
2022/06/16 10:28:40;;;;;;;1.30;1.20;;;38.30;39.70;;;;;;5131554;27;20440;-58
2022/06/16 10:31:07;;;;;;;1.23;1.13;;;38.30;37.50;;;;;;5131791;27;20486;-59
2022/06/16 10:33:52;;;;;;;2.47;1.30;;;38.10;39.00;;;;;;5133566;27;20026;-58
2022/06/16 10:36:22;;;;;;;1.60;1.40;;;38.40;36.00;;;;;;5134523;27;20019;-58
2022/06/16 10:39:14;;;;;;;1.42;1.33;;;38.30;36.50;;;;;;5130489;27;20065;-58
2022/06/16 10:42:04;;;;;;;1.60;1.07;;;38.40;35.20;;;;;;5127492;27;20557;-57
2022/06/16 10:44:32;;;;;;;1.10;1.10;;;38.40;37.30;;;;;;5141199;27;20345;-59
2022/06/16 10:47:01;;;;;;;1.08;1.00;;;38.50;35.50;;;;;;5125214;27;20023;-59
2022/06/16 10:49:36;;;;;;;1.23;1.13;;;38.40;35.10;;;;;;5133616;27;20015;-59
2022/06/16 10:52:07;;;;;;;1.85;0.95;;;38.50;34.80;;;;;;5134769;27;20028;-57
2022/06/16 10:54:36;;;;;;;1.38;1.20;;;38.50;37.80;;;;;;5132700;27;20376;-58
2022/06/16 10:57:22;;;;;;;1.55;1.20;;;38.40;35.60;;;;;;5132435;27;20095;-59
2022/06/16 10:59:55;;;;;;;1.23;1.10;;;38.10;37.00;;;;;;5132911;27;20015;-59
2022/06/16 11:02:27;;;;;;;1.42;1.00;;;38.20;41.20;;;;;;5131740;27;20474;-60
2022/06/16 11:05:03;;;;;;;1.83;1.35;;;38.10;39.60;;;;;;5128647;27;20038;-60
2022/06/16 11:07:36;;;;;;;1.00;1.00;;;37.80;38.40;;;;;;5134368;27;20030;-59
2022/06/16 11:10:28;;;;;;;1.73;0.95;;;37.90;40.20;;;;;;5132224;27;20015;-59
2022/06/16 11:12:54;;;;;;;0.93;0.93;;;38.20;41.20;;;;;;5112649;28;20031;-60
2022/06/16 11:15:35;;;;;;;1.65;1.30;;;38.50;39.80;;;;;;5112210;28;20041;-59
2022/06/16 11:18:04;;;;;;;1.40;1.30;;;38.40;36.40;;;;;;5111166;28;20042;-60
2022/06/16 11:20:47;;;;;;;1.10;1.00;;;38.30;36.40;;;;;;5111261;28;20405;-59
2022/06/16 11:23:18;;;;;;;1.10;1.00;;;38.40;39.20;;;;;;5111097;28;20023;-59
2022/06/16 11:25:43;;;;;;;1.17;1.08;;;38.60;37.70;;;;;;5111394;28;20020;-60
2022/06/16 11:28:10;;;;;;;0.90;0.90;;;38.40;37.10;;;;;;5111703;28;20503;-60
2022/06/16 11:30:47;;;;;;;1.20;1.00;;;38.30;38.80;;;;;;5118822;27;20034;-60
2022/06/16 11:36:22;;;;;;;1.25;1.15;;;38.20;37.60;;;;;;5130346;27;20507;-59
2022/06/16 11:39:10;;;;;;;1.33;1.23;;;37.60;40.90;;;;;;5134323;27;20031;-60
2022/06/16 11:41:37;;;;;;;2.25;1.20;;;37.40;36.40;;;;;;5134083;28;20073;-59
2022/06/16 11:44:34;;;;;;;1.35;1.10;;;37.40;37.30;;;;;;5134145;28;20023;-59
2022/06/16 11:47:33;;;;;;;1.65;1.05;;;37.70;39.30;;;;;;5134463;28;20028;-60
2022/06/16 11:50:10;;;;;;;1.63;0.90;;;37.80;39.80;;;;;;5121937;27;20019;-59
2022/06/16 11:52:36;;;;;;;1.40;1.30;;;38.00;40.90;;;;;;5126455;27;20039;-59
2022/06/16 11:55:39;;;;;;;1.63;1.00;;;37.70;36.70;;;;;;5133674;27;20457;-60
2022/06/16 11:58:32;;;;;;;1.30;1.20;;;37.30;39.50;;;;;;5133849;28;20438;-60
2022/06/16 12:01:02;;;;;;;1.50;1.40;;;37.10;36.50;;;;;;5133954;28;20493;-60
2022/06/16 12:04:02;;;;;;;3.17;1.40;;;36.60;34.90;;;;;;5133973;28;20358;-59
2022/06/16 12:06:59;;;;;;;1.38;1.27;;;36.50;38.00;;;;;;5090017;28;20057;-60
2022/06/16 12:09:55;;;;;;;2.13;1.40;;;36.70;38.90;;;;;;5132781;27;20111;-59
2022/06/16 12:12:39;;;;;;;1.20;1.10;;;36.80;39.20;;;;;;5136133;27;20050;-59
2022/06/16 12:15:23;;;;;;;1.40;1.10;;;36.90;40.40;;;;;;5136300;27;20089;-59
2022/06/16 12:17:54;;;;;;;1.30;1.20;;;36.90;36.60;;;;;;5137391;27;20019;-59
2022/06/16 12:20:29;;;;;;;1.60;1.13;;;36.70;36.30;;;;;;5136255;27;20019;-59
2022/06/16 12:23:17;;;;;;;1.23;1.13;;;36.90;37.00;;;;;;5136346;27;20477;-60
2022/06/16 12:25:49;;;;;;;1.77;1.20;;;37.00;40.80;;;;;;5137516;27;20558;-59
2022/06/16 12:28:36;;;;;;;1.27;0.95;;;37.30;35.70;;;;;;5137734;27;20520;-60
2022/06/16 12:31:06;;;;;;;2.35;1.30;;;37.20;36.00;;;;;;5137909;27;20034;-59
2022/06/16 12:33:31;;;;;;;1.23;1.08;;;37.10;36.60;;;;;;5138002;27;20033;-60
2022/06/16 12:36:11;;;;;;;1.00;0.90;;;36.90;36.20;;;;;;5137341;27;20106;-59
2022/06/16 12:38:48;;;;;;;1.33;1.10;;;37.10;39.10;;;;;;5137617;27;20384;-59
2022/06/16 12:41:23;;;;;;;1.38;1.20;;;37.40;37.20;;;;;;5137784;27;20047;-59
2022/06/16 12:44:03;;;;;;;1.13;1.02;;;37.40;36.40;;;;;;5137647;27;20016;-59
2022/06/16 12:46:36;;;;;;;1.98;1.00;;;37.20;38.40;;;;;;5137397;27;20027;-60
2022/06/16 12:49:23;;;;;;;0.90;0.90;;;37.10;36.70;;;;;;5137162;27;20037;-59
2022/06/16 12:51:55;;;;;;;1.00;1.00;;;36.80;35.90;;;;;;5137547;27;20038;-60
2022/06/16 12:54:30;;;;;;;1.40;1.30;;;36.90;38.20;;;;;;5137467;27;20422;-60
2022/06/16 12:57:09;;;;;;;0.98;0.98;;;37.20;36.80;;;;;;5137094;27;20071;-60
2022/06/16 12:59:43;;;;;;;2.58;1.27;;;37.40;35.40;;;;;;5137526;27;20027;-59
2022/06/16 13:02:15;;;;;;;1.20;1.13;;;37.40;35.60;;;;;;5137176;27;20026;-60
2022/06/16 13:04:42;;;;;;;1.40;1.30;;;37.30;35.40;;;;;;5137190;27;20381;-59
2022/06/16 13:07:16;;;;;;;1.48;1.15;;;36.90;36.40;;;;;;5137145;27;20470;-59
2022/06/16 13:09:42;;;;;;;1.38;1.27;;;36.70;36.80;;;;;;5137215;27;20035;-59
2022/06/16 13:12:33;;;;;;;1.20;1.10;;;36.80;37.80;;;;;;5137256;27;20090;-60
2022/06/16 13:15:06;;;;;;;1.38;1.10;;;36.70;37.40;;;;;;5136691;27;20023;-60
2022/06/16 13:17:37;;;;;;;1.02;0.93;;;36.70;35.30;;;;;;5137036;27;20015;-60
2022/06/16 13:20:10;;;;;;;1.38;1.27;;;36.90;36.20;;;;;;5136930;27;20019;-60
2022/06/16 13:22:43;;;;;;;1.23;1.10;;;36.90;38.70;;;;;;5136893;27;20434;-60
2022/06/16 13:25:33;;;;;;;1.48;1.10;;;37.00;35.40;;;;;;5136712;27;20023;-60
2022/06/16 13:27:59;;;;;;;1.85;1.00;;;37.10;36.50;;;;;;5136980;27;20023;-59
2022/06/16 13:30:32;;;;;;;2.15;1.05;;;37.20;36.10;;;;;;5136598;27;20030;-59
2022/06/16 13:33:07;;;;;;;1.23;1.10;;;37.10;34.90;;;;;;5136352;27;20019;-60
2022/06/16 13:35:38;;;;;;;1.40;1.20;;;37.00;40.70;;;;;;5136446;27;20027;-60
2022/06/16 13:38:04;;;;;;;0.98;0.90;;;37.10;36.10;;;;;;5136414;27;20023;-60